sensor_id;sensor_type;location;lat;lon;timestamp;P1;durP1;ratioP1;P2;durP2;ratioP2
9080;SDS011;13509;50.760;6.080;2023-05-10T00:01:19;28.47;;;18.67;;
9080;SDS011;13509;50.760;6.080;2023-05-10T00:03:48;29.53;;;18.30;;
9080;SDS011;13509;50.760;6.080;2023-05-10T00:06:16;31.57;;;20.03;;
9080;SDS011;13509;50.760;6.080;2023-05-10T00:08:46;34.17;;;20.33;;
9080;SDS011;13509;50.760;6.080;2023-05-10T00:11:14;31.43;;;19.63;;
9080;SDS011;13509;50.760;6.080;2023-05-10T00:13:42;31.13;;;18.63;;
9080;SDS011;13509;50.760;6.080;2023-05-10T00:16:10;27.77;;;18.33;;
9080;SDS011;13509;50.760;6.080;2023-05-10T00:18:39;26.20;;;17.07;;
9080;SDS011;13509;50.760;6.080;2023-05-10T00:21:07;27.47;;;17.23;;
9080;SDS011;13509;50.760;6.080;2023-05-10T00:23:36;31.53;;;19.30;;
9080;SDS011;13509;50.760;6.080;2023-05-10T00:26:05;28.27;;;17.60;;
9080;SDS011;13509;50.760;6.080;2023-05-10T00:28:34;29.60;;;19.03;;
9080;SDS011;13509;50.760;6.080;2023-05-10T00:31:02;29.47;;;18.30;;
9080;SDS011;13509;50.760;6.080;2023-05-10T00:33:30;29.30;;;17.67;;
9080;SDS011;13509;50.760;6.080;2023-05-10T00:35:58;27.67;;;17.13;;
9080;SDS011;13509;50.760;6.080;2023-05-10T00:38:27;24.90;;;15.23;;
9080;SDS011;13509;50.760;6.080;2023-05-10T00:40:55;25.23;;;15.80;;
9080;SDS011;13509;50.760;6.080;2023-05-10T00:43:24;18.20;;;13.23;;
9080;SDS011;13509;50.760;6.080;2023-05-10T00:45:53;24.40;;;12.90;;
9080;SDS011;13509;50.760;6.080;2023-05-10T00:48:21;20.63;;;11.77;;
9080;SDS011;13509;50.760;6.080;2023-05-10T00:50:50;16.87;;;11.57;;
9080;SDS011;13509;50.760;6.080;2023-05-10T00:53:18;18.73;;;11.33;;
9080;SDS011;13509;50.760;6.080;2023-05-10T00:55:46;14.40;;;10.37;;
9080;SDS011;13509;50.760;6.080;2023-05-10T00:58:14;16.40;;;11.33;;
9080;SDS011;13509;50.760;6.080;2023-05-10T01:00:44;14.53;;;11.37;;
9080;SDS011;13509;50.760;6.080;2023-05-10T01:03:13;16.57;;;10.70;;
9080;SDS011;13509;50.760;6.080;2023-05-10T01:05:42;14.27;;;10.73;;
9080;SDS011;13509;50.760;6.080;2023-05-10T01:08:10;13.67;;;10.37;;
9080;SDS011;13509;50.760;6.080;2023-05-10T01:10:38;12.83;;;9.77;;
9080;SDS011;13509;50.760;6.080;2023-05-10T01:13:06;13.60;;;9.87;;
9080;SDS011;13509;50.760;6.080;2023-05-10T01:15:35;12.20;;;9.37;;
9080;SDS011;13509;50.760;6.080;2023-05-10T01:18:04;11.33;;;9.80;;
9080;SDS011;13509;50.760;6.080;2023-05-10T01:20:35;12.20;;;9.53;;
9080;SDS011;13509;50.760;6.080;2023-05-10T01:23:16;13.77;;;9.83;;
9080;SDS011;13509;50.760;6.080;2023-05-10T01:28:54;12.63;;;9.43;;
9080;SDS011;13509;50.760;6.080;2023-05-10T01:31:30;12.70;;;9.80;;
9080;SDS011;13509;50.760;6.080;2023-05-10T01:34:01;15.87;;;10.90;;
9080;SDS011;13509;50.760;6.080;2023-05-10T01:36:30;23.17;;;11.00;;
9080;SDS011;13509;50.760;6.080;2023-05-10T01:39:01;15.23;;;9.63;;
9080;SDS011;13509;50.760;6.080;2023-05-10T01:41:32;14.67;;;9.77;;
9080;SDS011;13509;50.760;6.080;2023-05-10T01:44:03;12.30;;;9.87;;
9080;SDS011;13509;50.760;6.080;2023-05-10T01:46:33;13.77;;;9.90;;
9080;SDS011;13509;50.760;6.080;2023-05-10T01:49:08;11.90;;;9.47;;
9080;SDS011;13509;50.760;6.080;2023-05-10T01:51:38;12.77;;;9.13;;
9080;SDS011;13509;50.760;6.080;2023-05-10T01:54:07;13.00;;;8.90;;
9080;SDS011;13509;50.760;6.080;2023-05-10T01:56:36;13.40;;;8.70;;
9080;SDS011;13509;50.760;6.080;2023-05-10T01:59:06;10.63;;;8.20;;
9080;SDS011;13509;50.760;6.080;2023-05-10T02:01:36;11.17;;;8.70;;
9080;SDS011;13509;50.760;6.080;2023-05-10T02:04:07;12.20;;;8.63;;
9080;SDS011;13509;50.760;6.080;2023-05-10T02:06:36;12.53;;;8.40;;
9080;SDS011;13509;50.760;6.080;2023-05-10T02:09:06;11.90;;;9.43;;
9080;SDS011;13509;50.760;6.080;2023-05-10T02:11:35;16.27;;;9.70;;
9080;SDS011;13509;50.760;6.080;2023-05-10T02:14:05;11.67;;;9.63;;
9080;SDS011;13509;50.760;6.080;2023-05-10T02:16:35;13.70;;;9.57;;
9080;SDS011;13509;50.760;6.080;2023-05-10T02:19:04;15.93;;;10.20;;
9080;SDS011;13509;50.760;6.080;2023-05-10T02:21:34;14.20;;;10.10;;
9080;SDS011;13509;50.760;6.080;2023-05-10T02:24:03;14.77;;;10.77;;
9080;SDS011;13509;50.760;6.080;2023-05-10T02:26:32;15.30;;;11.30;;
9080;SDS011;13509;50.760;6.080;2023-05-10T02:29:01;14.87;;;11.40;;
9080;SDS011;13509;50.760;6.080;2023-05-10T02:31:30;18.90;;;13.83;;
9080;SDS011;13509;50.760;6.080;2023-05-10T02:33:59;19.83;;;13.93;;
9080;SDS011;13509;50.760;6.080;2023-05-10T02:36:28;19.07;;;15.17;;
9080;SDS011;13509;50.760;6.080;2023-05-10T02:38:59;22.23;;;15.47;;
9080;SDS011;13509;50.760;6.080;2023-05-10T02:41:30;24.40;;;15.93;;
9080;SDS011;13509;50.760;6.080;2023-05-10T02:43:59;22.87;;;15.60;;
9080;SDS011;13509;50.760;6.080;2023-05-10T02:46:28;23.97;;;16.10;;
9080;SDS011;13509;50.760;6.080;2023-05-10T02:48:57;22.20;;;15.63;;
9080;SDS011;13509;50.760;6.080;2023-05-10T02:51:26;27.13;;;16.07;;
9080;SDS011;13509;50.760;6.080;2023-05-10T02:53:57;23.97;;;16.57;;
9080;SDS011;13509;50.760;6.080;2023-05-10T02:56:31;28.27;;;16.70;;
9080;SDS011;13509;50.760;6.080;2023-05-10T02:59:01;29.07;;;17.13;;
9080;SDS011;13509;50.760;6.080;2023-05-10T03:01:29;29.37;;;16.40;;
9080;SDS011;13509;50.760;6.080;2023-05-10T03:03:57;26.07;;;16.77;;
9080;SDS011;13509;50.760;6.080;2023-05-10T03:06:25;25.37;;;15.53;;
9080;SDS011;13509;50.760;6.080;2023-05-10T03:08:54;26.23;;;15.73;;
9080;SDS011;13509;50.760;6.080;2023-05-10T03:11:27;23.67;;;15.40;;
9080;SDS011;13509;50.760;6.080;2023-05-10T03:14:00;24.43;;;14.77;;
9080;SDS011;13509;50.760;6.080;2023-05-10T03:16:32;21.57;;;13.57;;
9080;SDS011;13509;50.760;6.080;2023-05-10T03:19:06;25.13;;;14.20;;
9080;SDS011;13509;50.760;6.080;2023-05-10T03:21:40;20.97;;;13.30;;
9080;SDS011;13509;50.760;6.080;2023-05-10T03:24:09;23.03;;;13.47;;
9080;SDS011;13509;50.760;6.080;2023-05-10T03:26:41;22.83;;;13.37;;
9080;SDS011;13509;50.760;6.080;2023-05-10T03:29:13;21.10;;;13.13;;
9080;SDS011;13509;50.760;6.080;2023-05-10T03:31:42;22.07;;;13.77;;
9080;SDS011;13509;50.760;6.080;2023-05-10T03:34:10;21.83;;;14.20;;
9080;SDS011;13509;50.760;6.080;2023-05-10T03:36:38;21.83;;;13.83;;
9080;SDS011;13509;50.760;6.080;2023-05-10T03:39:07;21.20;;;14.43;;
9080;SDS011;13509;50.760;6.080;2023-05-10T03:41:36;22.70;;;14.57;;
9080;SDS011;13509;50.760;6.080;2023-05-10T03:44:04;20.33;;;13.80;;
9080;SDS011;13509;50.760;6.080;2023-05-10T03:46:34;23.57;;;14.53;;
9080;SDS011;13509;50.760;6.080;2023-05-10T03:49:02;29.67;;;15.40;;
9080;SDS011;13509;50.760;6.080;2023-05-10T03:51:30;25.27;;;14.70;;
9080;SDS011;13509;50.760;6.080;2023-05-10T03:53:58;21.50;;;13.37;;
9080;SDS011;13509;50.760;6.080;2023-05-10T03:56:27;20.97;;;13.77;;
9080;SDS011;13509;50.760;6.080;2023-05-10T03:58:55;21.47;;;13.80;;
9080;SDS011;13509;50.760;6.080;2023-05-10T04:01:23;23.40;;;14.00;;
9080;SDS011;13509;50.760;6.080;2023-05-10T04:03:53;20.27;;;13.23;;
9080;SDS011;13509;50.760;6.080;2023-05-10T04:06:21;18.53;;;13.30;;
9080;SDS011;13509;50.760;6.080;2023-05-10T04:08:49;21.97;;;13.07;;
9080;SDS011;13509;50.760;6.080;2023-05-10T04:11:17;17.47;;;12.57;;
9080;SDS011;13509;50.760;6.080;2023-05-10T04:13:48;27.57;;;13.50;;
9080;SDS011;13509;50.760;6.080;2023-05-10T04:16:16;26.67;;;14.73;;
9080;SDS011;13509;50.760;6.080;2023-05-10T04:18:44;21.30;;;13.97;;
9080;SDS011;13509;50.760;6.080;2023-05-10T04:21:13;21.63;;;12.37;;
9080;SDS011;13509;50.760;6.080;2023-05-10T04:23:42;20.90;;;12.63;;
9080;SDS011;13509;50.760;6.080;2023-05-10T04:26:10;20.23;;;12.30;;
9080;SDS011;13509;50.760;6.080;2023-05-10T04:28:38;18.60;;;11.47;;
9080;SDS011;13509;50.760;6.080;2023-05-10T04:31:07;20.60;;;11.37;;
9080;SDS011;13509;50.760;6.080;2023-05-10T04:33:36;23.00;;;11.63;;
9080;SDS011;13509;50.760;6.080;2023-05-10T04:36:04;24.07;;;12.07;;
9080;SDS011;13509;50.760;6.080;2023-05-10T04:38:34;21.27;;;11.70;;
9080;SDS011;13509;50.760;6.080;2023-05-10T04:41:06;19.50;;;11.97;;
9080;SDS011;13509;50.760;6.080;2023-05-10T04:43:35;19.37;;;11.20;;
9080;SDS011;13509;50.760;6.080;2023-05-10T04:46:03;22.70;;;12.00;;
9080;SDS011;13509;50.760;6.080;2023-05-10T04:48:31;22.17;;;12.40;;
9080;SDS011;13509;50.760;6.080;2023-05-10T04:51:00;20.00;;;12.53;;
9080;SDS011;13509;50.760;6.080;2023-05-10T04:53:29;21.73;;;11.90;;
9080;SDS011;13509;50.760;6.080;2023-05-10T04:55:59;21.73;;;12.33;;
9080;SDS011;13509;50.760;6.080;2023-05-10T04:58:27;22.87;;;12.93;;
9080;SDS011;13509;50.760;6.080;2023-05-10T05:00:55;21.00;;;11.50;;
9080;SDS011;13509;50.760;6.080;2023-05-10T05:03:23;23.93;;;13.13;;
9080;SDS011;13509;50.760;6.080;2023-05-10T05:05:52;21.47;;;12.23;;
9080;SDS011;13509;50.760;6.080;2023-05-10T05:08:20;24.53;;;12.10;;
9080;SDS011;13509;50.760;6.080;2023-05-10T05:10:48;24.23;;;12.73;;
9080;SDS011;13509;50.760;6.080;2023-05-10T05:13:18;23.60;;;12.23;;
9080;SDS011;13509;50.760;6.080;2023-05-10T05:15:46;22.40;;;11.93;;
9080;SDS011;13509;50.760;6.080;2023-05-10T05:18:15;26.00;;;12.60;;
9080;SDS011;13509;50.760;6.080;2023-05-10T05:20:43;24.03;;;12.10;;
9080;SDS011;13509;50.760;6.080;2023-05-10T05:23:11;23.00;;;11.80;;
9080;SDS011;13509;50.760;6.080;2023-05-10T05:25:39;20.07;;;11.20;;
9080;SDS011;13509;50.760;6.080;2023-05-10T05:28:08;17.77;;;9.67;;
9080;SDS011;13509;50.760;6.080;2023-05-10T05:30:37;15.27;;;9.80;;
9080;SDS011;13509;50.760;6.080;2023-05-10T05:33:05;18.60;;;9.87;;
9080;SDS011;13509;50.760;6.080;2023-05-10T05:35:34;15.17;;;8.43;;
9080;SDS011;13509;50.760;6.080;2023-05-10T05:38:02;16.90;;;8.73;;
9080;SDS011;13509;50.760;6.080;2023-05-10T05:40:30;15.30;;;7.93;;
9080;SDS011;13509;50.760;6.080;2023-05-10T05:42:58;12.23;;;7.27;;
9080;SDS011;13509;50.760;6.080;2023-05-10T05:45:26;12.57;;;7.80;;
9080;SDS011;13509;50.760;6.080;2023-05-10T05:47:56;9.93;;;6.83;;
9080;SDS011;13509;50.760;6.080;2023-05-10T05:50:24;13.53;;;7.10;;
9080;SDS011;13509;50.760;6.080;2023-05-10T05:52:53;11.43;;;6.47;;
9080;SDS011;13509;50.760;6.080;2023-05-10T05:55:21;11.40;;;6.20;;
9080;SDS011;13509;50.760;6.080;2023-05-10T05:57:50;9.83;;;5.97;;
9080;SDS011;13509;50.760;6.080;2023-05-10T06:00:18;10.67;;;5.83;;
9080;SDS011;13509;50.760;6.080;2023-05-10T06:02:47;10.70;;;6.20;;
9080;SDS011;13509;50.760;6.080;2023-05-10T06:05:17;8.23;;;5.63;;
9080;SDS011;13509;50.760;6.080;2023-05-10T06:07:46;8.17;;;5.80;;
9080;SDS011;13509;50.760;6.080;2023-05-10T06:10:14;9.17;;;5.67;;
9080;SDS011;13509;50.760;6.080;2023-05-10T06:12:42;9.27;;;5.80;;
9080;SDS011;13509;50.760;6.080;2023-05-10T06:15:11;6.90;;;5.00;;
9080;SDS011;13509;50.760;6.080;2023-05-10T06:17:39;8.23;;;5.40;;
9080;SDS011;13509;50.760;6.080;2023-05-10T06:20:09;7.33;;;5.03;;
9080;SDS011;13509;50.760;6.080;2023-05-10T06:22:39;7.23;;;4.50;;
9080;SDS011;13509;50.760;6.080;2023-05-10T06:25:08;6.90;;;4.40;;
9080;SDS011;13509;50.760;6.080;2023-05-10T06:27:37;7.97;;;3.83;;
9080;SDS011;13509;50.760;6.080;2023-05-10T06:30:06;3.93;;;3.10;;
9080;SDS011;13509;50.760;6.080;2023-05-10T06:32:38;2.80;;;2.10;;
9080;SDS011;13509;50.760;6.080;2023-05-10T06:35:07;4.33;;;1.87;;
9080;SDS011;13509;50.760;6.080;2023-05-10T06:37:35;4.07;;;1.60;;
9080;SDS011;13509;50.760;6.080;2023-05-10T06:40:06;3.23;;;1.00;;
9080;SDS011;13509;50.760;6.080;2023-05-10T06:42:35;1.00;;;0.97;;
9080;SDS011;13509;50.760;6.080;2023-05-10T06:45:04;1.27;;;1.17;;
9080;SDS011;13509;50.760;6.080;2023-05-10T06:47:32;1.47;;;0.50;;
9080;SDS011;13509;50.760;6.080;2023-05-10T06:50:04;3.67;;;1.00;;
9080;SDS011;13509;50.760;6.080;2023-05-10T06:52:32;3.50;;;1.20;;
9080;SDS011;13509;50.760;6.080;2023-05-10T06:55:01;2.30;;;1.00;;
9080;SDS011;13509;50.760;6.080;2023-05-10T06:57:31;1.30;;;0.70;;
9080;SDS011;13509;50.760;6.080;2023-05-10T06:59:59;2.20;;;1.00;;
9080;SDS011;13509;50.760;6.080;2023-05-10T07:02:27;0.53;;;0.53;;
9080;SDS011;13509;50.760;6.080;2023-05-10T07:04:55;2.33;;;0.73;;
9080;SDS011;13509;50.760;6.080;2023-05-10T07:07:27;1.20;;;0.97;;
9080;SDS011;13509;50.760;6.080;2023-05-10T07:09:56;2.37;;;0.90;;
9080;SDS011;13509;50.760;6.080;2023-05-10T07:12:24;0.60;;;0.60;;
9080;SDS011;13509;50.760;6.080;2023-05-10T07:14:54;3.50;;;0.90;;
9080;SDS011;13509;50.760;6.080;2023-05-10T07:17:22;1.60;;;0.70;;
9080;SDS011;13509;50.760;6.080;2023-05-10T07:19:51;1.10;;;0.87;;
9080;SDS011;13509;50.760;6.080;2023-05-10T07:22:19;1.53;;;0.80;;
9080;SDS011;13509;50.760;6.080;2023-05-10T07:24:47;3.43;;;0.80;;
9080;SDS011;13509;50.760;6.080;2023-05-10T07:27:15;1.00;;;0.90;;
9080;SDS011;13509;50.760;6.080;2023-05-10T07:29:43;1.60;;;0.97;;
9080;SDS011;13509;50.760;6.080;2023-05-10T07:32:13;2.50;;;1.27;;
9080;SDS011;13509;50.760;6.080;2023-05-10T07:34:41;4.10;;;1.57;;
9080;SDS011;13509;50.760;6.080;2023-05-10T07:37:10;3.43;;;1.57;;
9080;SDS011;13509;50.760;6.080;2023-05-10T07:39:38;2.57;;;1.97;;
9080;SDS011;13509;50.760;6.080;2023-05-10T07:42:06;3.90;;;1.87;;
9080;SDS011;13509;50.760;6.080;2023-05-10T07:44:35;16.13;;;3.30;;
9080;SDS011;13509;50.760;6.080;2023-05-10T07:47:03;40.33;;;6.30;;
9080;SDS011;13509;50.760;6.080;2023-05-10T07:49:32;38.97;;;4.70;;
9080;SDS011;13509;50.760;6.080;2023-05-10T07:52:02;50.27;;;7.37;;
9080;SDS011;13509;50.760;6.080;2023-05-10T07:54:31;156.57;;;18.47;;
9080;SDS011;13509;50.760;6.080;2023-05-10T07:56:59;8.67;;;3.10;;
9080;SDS011;13509;50.760;6.080;2023-05-10T07:59:28;12.97;;;3.50;;
9080;SDS011;13509;50.760;6.080;2023-05-10T08:01:56;585.53;;;42.43;;
9080;SDS011;13509;50.760;6.080;2023-05-10T08:04:24;129.60;;;22.83;;
9080;SDS011;13509;50.760;6.080;2023-05-10T08:06:54;18.60;;;4.67;;
9080;SDS011;13509;50.760;6.080;2023-05-10T08:09:22;36.60;;;5.37;;
9080;SDS011;13509;50.760;6.080;2023-05-10T08:11:50;52.63;;;5.83;;
9080;SDS011;13509;50.760;6.080;2023-05-10T08:14:19;21.27;;;3.67;;
9080;SDS011;13509;50.760;6.080;2023-05-10T08:16:47;31.10;;;4.67;;
9080;SDS011;13509;50.760;6.080;2023-05-10T08:19:15;11.00;;;2.00;;
9080;SDS011;13509;50.760;6.080;2023-05-10T08:21:45;161.73;;;13.53;;
9080;SDS011;13509;50.760;6.080;2023-05-10T08:24:15;24.60;;;2.33;;
9080;SDS011;13509;50.760;6.080;2023-05-10T08:26:43;53.50;;;3.60;;
9080;SDS011;13509;50.760;6.080;2023-05-10T08:29:11;73.57;;;4.07;;
9080;SDS011;13509;50.760;6.080;2023-05-10T08:31:39;16.63;;;2.43;;
9080;SDS011;13509;50.760;6.080;2023-05-10T08:34:08;8.27;;;5.10;;
9080;SDS011;13509;50.760;6.080;2023-05-10T08:36:36;2.20;;;1.83;;
9080;SDS011;13509;50.760;6.080;2023-05-10T08:39:04;10.17;;;3.33;;
9080;SDS011;13509;50.760;6.080;2023-05-10T08:41:50;2.77;;;1.80;;
9080;SDS011;13509;50.760;6.080;2023-05-10T08:44:19;1.90;;;1.70;;
9080;SDS011;13509;50.760;6.080;2023-05-10T08:46:47;3.07;;;1.60;;
9080;SDS011;13509;50.760;6.080;2023-05-10T08:49:17;50.53;;;4.17;;
9080;SDS011;13509;50.760;6.080;2023-05-10T08:51:49;13.80;;;2.43;;
9080;SDS011;13509;50.760;6.080;2023-05-10T08:54:18;3.83;;;1.67;;
9080;SDS011;13509;50.760;6.080;2023-05-10T08:56:46;10.97;;;1.60;;
9080;SDS011;13509;50.760;6.080;2023-05-10T08:59:16;4.20;;;3.47;;
9080;SDS011;13509;50.760;6.080;2023-05-10T09:01:45;1.70;;;1.60;;
9080;SDS011;13509;50.760;6.080;2023-05-10T09:04:15;11.57;;;2.07;;
9080;SDS011;13509;50.760;6.080;2023-05-10T09:06:44;41.53;;;3.50;;
9080;SDS011;13509;50.760;6.080;2023-05-10T09:09:12;18.00;;;2.30;;
9080;SDS011;13509;50.760;6.080;2023-05-10T09:11:41;28.77;;;3.50;;
9080;SDS011;13509;50.760;6.080;2023-05-10T09:14:09;30.93;;;3.87;;
9080;SDS011;13509;50.760;6.080;2023-05-10T09:16:40;24.10;;;3.10;;
9080;SDS011;13509;50.760;6.080;2023-05-10T09:19:08;32.73;;;3.93;;
9080;SDS011;13509;50.760;6.080;2023-05-10T09:21:37;23.17;;;3.13;;
9080;SDS011;13509;50.760;6.080;2023-05-10T09:24:05;34.37;;;3.80;;
9080;SDS011;13509;50.760;6.080;2023-05-10T09:26:34;19.87;;;3.03;;
9080;SDS011;13509;50.760;6.080;2023-05-10T09:29:03;178.60;;;13.70;;
9080;SDS011;13509;50.760;6.080;2023-05-10T09:34:19;65.97;;;5.83;;
9080;SDS011;13509;50.760;6.080;2023-05-10T09:36:54;183.93;;;23.30;;
9080;SDS011;13509;50.760;6.080;2023-05-10T09:39:33;11.40;;;2.80;;
9080;SDS011;13509;50.760;6.080;2023-05-10T09:42:01;2.87;;;1.47;;
9080;SDS011;13509;50.760;6.080;2023-05-10T09:44:30;1.40;;;1.30;;
9080;SDS011;13509;50.760;6.080;2023-05-10T09:46:59;1.50;;;1.40;;
9080;SDS011;13509;50.760;6.080;2023-05-10T09:49:29;2.60;;;1.33;;
9080;SDS011;13509;50.760;6.080;2023-05-10T09:52:01;1.43;;;1.33;;
9080;SDS011;13509;50.760;6.080;2023-05-10T09:54:30;1.07;;;1.03;;
9080;SDS011;13509;50.760;6.080;2023-05-10T09:56:58;1.47;;;1.37;;
9080;SDS011;13509;50.760;6.080;2023-05-10T09:59:27;2.33;;;1.40;;
9080;SDS011;13509;50.760;6.080;2023-05-10T10:01:56;2.27;;;1.67;;
9080;SDS011;13509;50.760;6.080;2023-05-10T10:04:25;1.57;;;1.47;;
9080;SDS011;13509;50.760;6.080;2023-05-10T10:07:01;1.30;;;1.20;;
9080;SDS011;13509;50.760;6.080;2023-05-10T10:09:30;1.33;;;1.23;;
9080;SDS011;13509;50.760;6.080;2023-05-10T10:11:59;1.67;;;1.57;;
9080;SDS011;13509;50.760;6.080;2023-05-10T10:14:27;2.07;;;1.93;;
9080;SDS011;13509;50.760;6.080;2023-05-10T10:16:55;1.67;;;1.50;;
9080;SDS011;13509;50.760;6.080;2023-05-10T10:19:26;1.40;;;1.30;;
9080;SDS011;13509;50.760;6.080;2023-05-10T10:21:55;1.70;;;1.47;;
9080;SDS011;13509;50.760;6.080;2023-05-10T10:24:25;3.90;;;1.47;;
9080;SDS011;13509;50.760;6.080;2023-05-10T10:26:54;1.13;;;1.03;;
9080;SDS011;13509;50.760;6.080;2023-05-10T10:29:26;1.27;;;1.17;;
9080;SDS011;13509;50.760;6.080;2023-05-10T10:32:02;2.90;;;1.90;;
9080;SDS011;13509;50.760;6.080;2023-05-10T10:34:32;1.83;;;1.60;;
9080;SDS011;13509;50.760;6.080;2023-05-10T10:37:03;2.33;;;1.50;;
9080;SDS011;13509;50.760;6.080;2023-05-10T10:39:34;1.60;;;1.50;;
9080;SDS011;13509;50.760;6.080;2023-05-10T10:42:04;5.00;;;1.73;;
9080;SDS011;13509;50.760;6.080;2023-05-10T10:44:33;2.37;;;1.47;;
9080;SDS011;13509;50.760;6.080;2023-05-10T10:47:06;1.70;;;1.60;;
9080;SDS011;13509;50.760;6.080;2023-05-10T10:49:37;1.83;;;1.50;;
9080;SDS011;13509;50.760;6.080;2023-05-10T10:52:13;1.83;;;1.70;;
9080;SDS011;13509;50.760;6.080;2023-05-10T10:54:42;2.63;;;1.80;;
9080;SDS011;13509;50.760;6.080;2023-05-10T10:57:14;2.87;;;1.60;;
9080;SDS011;13509;50.760;6.080;2023-05-10T10:59:43;1.60;;;1.50;;
9080;SDS011;13509;50.760;6.080;2023-05-10T11:02:17;2.67;;;1.70;;
9080;SDS011;13509;50.760;6.080;2023-05-10T11:05:00;1.60;;;1.50;;
9080;SDS011;13509;50.760;6.080;2023-05-10T11:07:28;3.93;;;1.70;;
9080;SDS011;13509;50.760;6.080;2023-05-10T11:09:58;1.70;;;1.60;;
9080;SDS011;13509;50.760;6.080;2023-05-10T11:12:31;3.27;;;1.40;;
9080;SDS011;13509;50.760;6.080;2023-05-10T11:15:01;1.47;;;1.37;;
9080;SDS011;13509;50.760;6.080;2023-05-10T11:17:29;3.13;;;1.60;;
9080;SDS011;13509;50.760;6.080;2023-05-10T11:20:02;2.30;;;1.60;;
9080;SDS011;13509;50.760;6.080;2023-05-10T11:22:48;2.33;;;1.90;;
9080;SDS011;13509;50.760;6.080;2023-05-10T11:25:18;1.97;;;1.80;;
9080;SDS011;13509;50.760;6.080;2023-05-10T11:27:47;1.90;;;1.80;;
9080;SDS011;13509;50.760;6.080;2023-05-10T11:30:15;2.27;;;2.07;;
9080;SDS011;13509;50.760;6.080;2023-05-10T11:32:44;3.17;;;2.50;;
9080;SDS011;13509;50.760;6.080;2023-05-10T11:35:13;2.70;;;2.27;;
9080;SDS011;13509;50.760;6.080;2023-05-10T11:37:41;2.53;;;2.20;;
9080;SDS011;13509;50.760;6.080;2023-05-10T11:40:11;2.90;;;2.60;;
9080;SDS011;13509;50.760;6.080;2023-05-10T11:42:42;6.60;;;2.50;;
9080;SDS011;13509;50.760;6.080;2023-05-10T11:45:10;2.30;;;2.10;;
9080;SDS011;13509;50.760;6.080;2023-05-10T11:47:39;3.40;;;2.57;;
9080;SDS011;13509;50.760;6.080;2023-05-10T11:50:10;2.80;;;2.07;;
9080;SDS011;13509;50.760;6.080;2023-05-10T11:52:38;2.10;;;2.00;;
9080;SDS011;13509;50.760;6.080;2023-05-10T11:55:07;2.40;;;2.00;;
9080;SDS011;13509;50.760;6.080;2023-05-10T11:57:35;3.43;;;2.73;;
9080;SDS011;13509;50.760;6.080;2023-05-10T12:00:06;2.97;;;2.60;;
9080;SDS011;13509;50.760;6.080;2023-05-10T12:02:35;3.50;;;2.50;;
9080;SDS011;13509;50.760;6.080;2023-05-10T12:05:03;3.23;;;2.60;;
9080;SDS011;13509;50.760;6.080;2023-05-10T12:07:32;2.83;;;2.60;;
9080;SDS011;13509;50.760;6.080;2023-05-10T12:10:07;2.87;;;2.60;;
9080;SDS011;13509;50.760;6.080;2023-05-10T12:12:37;4.00;;;2.60;;
9080;SDS011;13509;50.760;6.080;2023-05-10T12:15:07;3.93;;;2.40;;
9080;SDS011;13509;50.760;6.080;2023-05-10T12:17:38;3.93;;;2.87;;
9080;SDS011;13509;50.760;6.080;2023-05-10T12:20:15;4.10;;;3.27;;
9080;SDS011;13509;50.760;6.080;2023-05-10T12:22:44;3.40;;;3.10;;
9080;SDS011;13509;50.760;6.080;2023-05-10T12:25:13;5.43;;;3.40;;
9080;SDS011;13509;50.760;6.080;2023-05-10T12:27:41;3.27;;;3.00;;
9080;SDS011;13509;50.760;6.080;2023-05-10T12:30:11;4.27;;;3.43;;
9080;SDS011;13509;50.760;6.080;2023-05-10T12:32:40;3.80;;;3.33;;
9080;SDS011;13509;50.760;6.080;2023-05-10T12:35:08;3.97;;;3.57;;
9080;SDS011;13509;50.760;6.080;2023-05-10T12:37:37;3.97;;;3.60;;
9080;SDS011;13509;50.760;6.080;2023-05-10T12:40:06;4.43;;;3.33;;
9080;SDS011;13509;50.760;6.080;2023-05-10T12:42:35;4.57;;;4.00;;
9080;SDS011;13509;50.760;6.080;2023-05-10T12:45:03;5.83;;;4.07;;
9080;SDS011;13509;50.760;6.080;2023-05-10T12:47:33;4.10;;;3.70;;
9080;SDS011;13509;50.760;6.080;2023-05-10T12:50:02;5.20;;;4.63;;
9080;SDS011;13509;50.760;6.080;2023-05-10T12:52:30;5.27;;;4.20;;
9080;SDS011;13509;50.760;6.080;2023-05-10T12:54:59;5.20;;;4.70;;
9080;SDS011;13509;50.760;6.080;2023-05-10T12:57:27;5.00;;;4.53;;
9080;SDS011;13509;50.760;6.080;2023-05-10T12:59:55;5.33;;;4.57;;
9080;SDS011;13509;50.760;6.080;2023-05-10T13:02:24;4.43;;;4.03;;
9080;SDS011;13509;50.760;6.080;2023-05-10T13:04:53;7.77;;;4.60;;
9080;SDS011;13509;50.760;6.080;2023-05-10T13:07:22;7.43;;;4.83;;
9080;SDS011;13509;50.760;6.080;2023-05-10T13:09:50;6.07;;;4.17;;
9080;SDS011;13509;50.760;6.080;2023-05-10T13:12:18;5.77;;;4.70;;
9080;SDS011;13509;50.760;6.080;2023-05-10T13:14:46;5.07;;;4.57;;
9080;SDS011;13509;50.760;6.080;2023-05-10T13:17:14;5.07;;;4.47;;
9080;SDS011;13509;50.760;6.080;2023-05-10T13:19:43;4.80;;;4.30;;
9080;SDS011;13509;50.760;6.080;2023-05-10T13:22:12;6.07;;;4.43;;
9080;SDS011;13509;50.760;6.080;2023-05-10T13:24:48;4.90;;;4.07;;
9080;SDS011;13509;50.760;6.080;2023-05-10T13:27:16;5.80;;;4.23;;
9080;SDS011;13509;50.760;6.080;2023-05-10T13:29:45;4.73;;;4.20;;
9080;SDS011;13509;50.760;6.080;2023-05-10T13:32:14;6.50;;;3.73;;
9080;SDS011;13509;50.760;6.080;2023-05-10T13:34:42;4.40;;;3.97;;
9080;SDS011;13509;50.760;6.080;2023-05-10T13:37:10;5.90;;;4.07;;
9080;SDS011;13509;50.760;6.080;2023-05-10T13:39:40;5.73;;;4.53;;
9080;SDS011;13509;50.760;6.080;2023-05-10T13:42:08;3.90;;;3.40;;
9080;SDS011;13509;50.760;6.080;2023-05-10T13:44:36;3.70;;;3.33;;
9080;SDS011;13509;50.760;6.080;2023-05-10T13:47:05;4.90;;;3.60;;
9080;SDS011;13509;50.760;6.080;2023-05-10T13:49:33;5.43;;;3.00;;
9080;SDS011;13509;50.760;6.080;2023-05-10T13:52:01;3.30;;;2.77;;
9080;SDS011;13509;50.760;6.080;2023-05-10T13:54:32;13.03;;;3.50;;
9080;SDS011;13509;50.760;6.080;2023-05-10T13:57:03;4.80;;;2.70;;
9080;SDS011;13509;50.760;6.080;2023-05-10T13:59:31;4.00;;;3.27;;
9080;SDS011;13509;50.760;6.080;2023-05-10T14:02:00;3.40;;;3.10;;
9080;SDS011;13509;50.760;6.080;2023-05-10T14:04:29;3.70;;;2.83;;
9080;SDS011;13509;50.760;6.080;2023-05-10T14:06:57;4.00;;;3.30;;
9080;SDS011;13509;50.760;6.080;2023-05-10T14:09:25;8.97;;;3.50;;
9080;SDS011;13509;50.760;6.080;2023-05-10T14:11:54;6.00;;;3.10;;
9080;SDS011;13509;50.760;6.080;2023-05-10T14:14:23;5.10;;;3.10;;
9080;SDS011;13509;50.760;6.080;2023-05-10T14:16:52;4.67;;;3.43;;
9080;SDS011;13509;50.760;6.080;2023-05-10T14:19:20;4.23;;;3.30;;
9080;SDS011;13509;50.760;6.080;2023-05-10T14:21:48;3.87;;;3.47;;
9080;SDS011;13509;50.760;6.080;2023-05-10T14:24:18;6.37;;;3.20;;
9080;SDS011;13509;50.760;6.080;2023-05-10T14:26:46;3.87;;;3.50;;
9080;SDS011;13509;50.760;6.080;2023-05-10T14:29:14;4.33;;;3.70;;
9080;SDS011;13509;50.760;6.080;2023-05-10T14:31:43;4.13;;;3.40;;
9080;SDS011;13509;50.760;6.080;2023-05-10T14:34:12;4.10;;;3.57;;
9080;SDS011;13509;50.760;6.080;2023-05-10T14:36:40;6.63;;;4.00;;
9080;SDS011;13509;50.760;6.080;2023-05-10T14:39:08;6.47;;;4.03;;
9080;SDS011;13509;50.760;6.080;2023-05-10T14:41:38;8.63;;;4.17;;
9080;SDS011;13509;50.760;6.080;2023-05-10T14:44:09;4.73;;;3.80;;
9080;SDS011;13509;50.760;6.080;2023-05-10T14:46:37;4.97;;;4.23;;
9080;SDS011;13509;50.760;6.080;2023-05-10T14:49:07;7.40;;;4.60;;
9080;SDS011;13509;50.760;6.080;2023-05-10T14:51:35;5.40;;;4.27;;
9080;SDS011;13509;50.760;6.080;2023-05-10T14:54:03;5.00;;;4.17;;
9080;SDS011;13509;50.760;6.080;2023-05-10T14:56:32;9.13;;;4.73;;
9080;SDS011;13509;50.760;6.080;2023-05-10T14:59:00;6.70;;;4.90;;
9080;SDS011;13509;50.760;6.080;2023-05-10T15:01:30;5.43;;;4.40;;
9080;SDS011;13509;50.760;6.080;2023-05-10T15:03:59;7.00;;;4.77;;
9080;SDS011;13509;50.760;6.080;2023-05-10T15:06:31;5.27;;;4.40;;
9080;SDS011;13509;50.760;6.080;2023-05-10T15:09:00;5.43;;;4.20;;